createdAt,value
2023-05-09T00:00:24.417Z,0.50
2023-05-09T00:01:24.498Z,0.41
2023-05-09T00:02:24.655Z,0.38
2023-05-09T00:03:24.664Z,0.38
2023-05-09T00:04:24.791Z,0.38
2023-05-09T00:05:24.786Z,0.42
2023-05-09T00:06:24.890Z,0.45
2023-05-09T00:07:24.939Z,0.50
2023-05-09T00:08:25.015Z,0.50
2023-05-09T00:09:25.087Z,0.50
2023-05-09T00:10:25.269Z,0.50
2023-05-09T00:11:25.218Z,0.50
2023-05-09T00:12:25.295Z,0.50
2023-05-09T00:13:25.485Z,0.50
2023-05-09T00:14:25.440Z,0.51
2023-05-09T00:15:26.497Z,0.50
2023-05-09T00:16:25.647Z,0.50
2023-05-09T00:17:25.710Z,0.50
2023-05-09T00:18:25.772Z,0.50
2023-05-09T00:19:25.839Z,0.50
2023-05-09T00:20:25.895Z,0.50
2023-05-09T00:21:25.976Z,0.50
2023-05-09T00:22:26.044Z,0.50
2023-05-09T00:23:26.116Z,0.50
2023-05-09T00:24:26.188Z,0.51
2023-05-09T00:25:26.254Z,0.50
2023-05-09T00:26:26.464Z,0.50
2023-05-09T00:27:26.372Z,0.50
2023-05-09T00:28:26.435Z,0.51
2023-05-09T00:29:26.578Z,0.50
2023-05-09T00:30:26.583Z,0.50
2023-05-09T00:31:26.720Z,0.50
2023-05-09T00:32:26.761Z,0.51
2023-05-09T00:33:26.765Z,0.51
2023-05-09T00:34:26.840Z,0.51
2023-05-09T00:35:25.845Z,0.51
2023-05-09T00:36:26.976Z,0.50
2023-05-09T00:37:26.858Z,0.51
2023-05-09T00:38:26.874Z,0.50
2023-05-09T00:39:26.886Z,0.51
2023-05-09T00:40:26.882Z,0.51
2023-05-09T00:41:26.928Z,0.50
2023-05-09T00:42:27.020Z,0.51
2023-05-09T00:43:26.911Z,0.50
2023-05-09T00:44:26.915Z,0.50
2023-05-09T00:45:26.980Z,0.51
2023-05-09T00:46:27.012Z,0.50
2023-05-09T00:47:26.962Z,0.50
2023-05-09T00:48:26.956Z,0.51
2023-05-09T00:49:26.951Z,0.50
2023-05-09T00:50:26.971Z,0.51
2023-05-09T00:51:26.980Z,0.51
2023-05-09T00:52:26.977Z,0.50
2023-05-09T00:53:26.978Z,0.51
2023-05-09T00:54:27.006Z,0.51
2023-05-09T00:55:27.457Z,0.51
2023-05-09T00:56:26.995Z,0.50
2023-05-09T00:57:27.006Z,0.51
2023-05-09T00:58:27.140Z,0.52
2023-05-09T00:59:27.024Z,0.50
2023-05-09T01:00:27.812Z,0.51
2023-05-09T01:01:27.174Z,0.51
2023-05-09T01:02:27.146Z,0.50
2023-05-09T01:03:27.207Z,0.51
2023-05-09T01:04:27.075Z,0.50
2023-05-09T01:05:27.087Z,0.51
2023-05-09T01:06:27.130Z,0.50
2023-05-09T01:07:27.099Z,0.51
2023-05-09T01:08:27.132Z,0.51
2023-05-09T01:09:27.187Z,0.51
2023-05-09T01:10:27.231Z,0.51
2023-05-09T01:11:27.313Z,0.51
2023-05-09T01:12:27.332Z,0.50
2023-05-09T01:13:27.426Z,0.51
2023-05-09T01:14:27.556Z,0.50
2023-05-09T01:15:27.503Z,0.51
2023-05-09T01:16:27.684Z,0.51
2023-05-09T01:17:27.643Z,0.50
2023-05-09T01:18:27.686Z,0.51
2023-05-09T01:19:27.763Z,0.50
2023-05-09T01:20:27.874Z,0.50
2023-05-09T01:21:27.910Z,0.50
2023-05-09T01:22:27.954Z,0.50
2023-05-09T01:23:28.036Z,0.50
2023-05-09T01:24:28.077Z,0.50
2023-05-09T01:25:28.173Z,0.50
2023-05-09T01:26:28.207Z,0.51
2023-05-09T01:27:28.256Z,0.52
2023-05-09T01:28:28.270Z,0.52
2023-05-09T01:29:28.287Z,0.51
2023-05-09T01:30:28.465Z,0.52
2023-05-09T01:31:28.450Z,0.51
2023-05-09T01:32:28.454Z,0.51
2023-05-09T01:33:28.418Z,0.52
2023-05-09T01:34:28.479Z,0.51
2023-05-09T01:35:28.501Z,0.50
2023-05-09T01:36:28.535Z,0.51
2023-05-09T01:37:28.549Z,0.51
2023-05-09T01:38:28.583Z,0.50
2023-05-09T01:39:28.614Z,0.51
2023-05-09T01:40:28.699Z,0.51
2023-05-09T01:41:28.700Z,0.52
2023-05-09T01:42:28.719Z,0.52
2023-05-09T01:43:28.789Z,0.51
2023-05-09T01:44:28.806Z,0.51
2023-05-09T01:45:28.868Z,0.52
2023-05-09T01:46:29.153Z,0.52
2023-05-09T01:47:29.001Z,0.51
2023-05-09T01:48:29.025Z,0.51
2023-05-09T01:49:29.071Z,0.50
2023-05-09T01:50:29.112Z,0.52
2023-05-09T01:51:29.167Z,0.51
2023-05-09T01:52:29.181Z,0.51
2023-05-09T01:53:29.223Z,0.51
2023-05-09T01:54:29.210Z,0.51
2023-05-09T01:55:29.269Z,0.50
2023-05-09T01:56:29.266Z,0.51
2023-05-09T01:57:29.336Z,0.52
2023-05-09T01:58:29.337Z,0.51
2023-05-09T01:59:29.349Z,0.51
2023-05-09T02:00:29.426Z,0.51
2023-05-09T02:01:29.394Z,0.51
2023-05-09T02:02:29.622Z,0.50
2023-05-09T02:03:29.518Z,0.51
2023-05-09T02:04:29.476Z,0.51
2023-05-09T02:05:29.499Z,0.51
2023-05-09T02:06:29.536Z,0.50
2023-05-09T02:07:29.587Z,0.50
2023-05-09T02:08:29.662Z,0.51
2023-05-09T02:09:29.669Z,0.50
2023-05-09T02:10:29.711Z,0.51
2023-05-09T02:11:29.769Z,0.50
2023-05-09T02:12:29.827Z,0.51
2023-05-09T02:13:29.884Z,0.51
2023-05-09T02:14:29.929Z,0.51
2023-05-09T02:15:30.037Z,0.50
2023-05-09T02:16:30.097Z,0.51
2023-05-09T02:17:30.142Z,0.51
2023-05-09T02:18:30.319Z,0.51
2023-05-09T02:19:30.233Z,0.50
2023-05-09T02:20:30.292Z,0.51
2023-05-09T02:21:30.365Z,0.50
2023-05-09T02:22:30.424Z,0.51
2023-05-09T02:23:30.468Z,0.51
2023-05-09T02:24:30.536Z,0.50
2023-05-09T02:25:30.593Z,0.51
2023-05-09T02:26:30.645Z,0.51
2023-05-09T02:27:30.703Z,0.51
2023-05-09T02:28:30.802Z,0.51
2023-05-09T02:29:30.796Z,0.51
2023-05-09T02:30:30.810Z,0.50
2023-05-09T02:31:30.859Z,0.52
2023-05-09T02:32:30.897Z,0.51
2023-05-09T02:33:30.944Z,0.51
2023-05-09T02:34:31.128Z,0.51
2023-05-09T02:35:31.049Z,0.51
2023-05-09T02:36:31.074Z,0.51
2023-05-09T02:37:31.103Z,0.52
2023-05-09T02:38:31.133Z,0.51
2023-05-09T02:39:31.157Z,0.51
2023-05-09T02:40:31.161Z,0.50
2023-05-09T02:41:31.212Z,0.51
2023-05-09T02:42:31.263Z,0.51
2023-05-09T02:43:31.324Z,0.51
2023-05-09T02:44:31.355Z,0.50
2023-05-09T02:45:31.387Z,0.50
2023-05-09T02:46:31.531Z,0.50
2023-05-09T02:47:31.590Z,0.52
2023-05-09T02:48:31.558Z,0.51
2023-05-09T02:49:32.644Z,0.50
2023-05-09T02:50:31.769Z,0.52
2023-05-09T02:51:31.688Z,0.52
2023-05-09T02:52:31.742Z,0.51
2023-05-09T02:53:31.810Z,0.50
2023-05-09T02:54:31.813Z,0.50
2023-05-09T02:55:31.864Z,0.51
2023-05-09T02:56:31.921Z,0.50
2023-05-09T02:57:32.009Z,0.51
2023-05-09T02:58:32.052Z,0.51
2023-05-09T02:59:32.081Z,0.50
2023-05-09T03:00:32.126Z,0.51
2023-05-09T03:01:32.168Z,0.52
2023-05-09T03:02:32.311Z,0.51
2023-05-09T03:03:32.296Z,0.51
2023-05-09T03:04:32.305Z,0.51
2023-05-09T03:05:32.373Z,0.51
2023-05-09T03:06:32.549Z,0.50
2023-05-09T03:07:32.474Z,0.52
2023-05-09T03:08:32.509Z,0.51
2023-05-09T03:09:32.553Z,0.51
2023-05-09T03:10:32.565Z,0.51
2023-05-09T03:11:32.613Z,0.51
2023-05-09T03:12:32.689Z,0.51
2023-05-09T03:13:32.701Z,0.51
2023-05-09T03:14:32.732Z,0.50
2023-05-09T03:15:32.798Z,0.50
2023-05-09T03:16:32.811Z,0.51
2023-05-09T03:17:32.926Z,0.50
2023-05-09T03:18:32.894Z,0.51
2023-05-09T03:19:32.934Z,0.51
2023-05-09T03:20:32.906Z,0.51
2023-05-09T03:21:32.932Z,0.52
2023-05-09T03:22:33.082Z,0.51
2023-05-09T03:23:32.977Z,0.51
2023-05-09T03:24:32.988Z,0.51
2023-05-09T03:25:33.598Z,0.50
2023-05-09T03:26:32.994Z,0.51
2023-05-09T03:27:33.124Z,0.52
2023-05-09T03:28:33.028Z,0.50
2023-05-09T03:29:33.047Z,0.50
2023-05-09T03:30:33.056Z,0.50
2023-05-09T03:31:33.123Z,0.51
2023-05-09T03:32:33.115Z,0.52
2023-05-09T03:33:33.130Z,0.51
2023-05-09T03:34:33.138Z,0.50
2023-05-09T03:35:33.125Z,0.51
2023-05-09T03:36:33.150Z,0.51
2023-05-09T03:37:33.188Z,0.51
2023-05-09T03:38:33.350Z,0.51
2023-05-09T03:39:33.238Z,0.51
2023-05-09T03:40:33.286Z,0.51
2023-05-09T03:41:33.296Z,0.53
2023-05-09T03:42:33.324Z,0.52
2023-05-09T03:43:33.374Z,0.51
2023-05-09T03:44:33.444Z,0.51
2023-05-09T03:45:33.438Z,0.51
2023-05-09T03:46:33.508Z,0.51
2023-05-09T03:47:33.589Z,0.51
2023-05-09T03:48:33.560Z,0.51
2023-05-09T03:49:33.608Z,0.50
2023-05-09T03:50:33.674Z,0.50
2023-05-09T03:51:33.716Z,0.51
2023-05-09T03:52:33.763Z,0.52
2023-05-09T03:53:33.795Z,0.52
2023-05-09T03:54:33.954Z,0.52
2023-05-09T03:55:33.871Z,0.50
2023-05-09T03:56:33.904Z,0.51
2023-05-09T03:57:33.937Z,0.50
2023-05-09T03:58:33.962Z,0.51
2023-05-09T03:59:33.996Z,0.51
2023-05-09T04:00:34.015Z,0.51
2023-05-09T04:01:34.066Z,0.51
2023-05-09T04:02:34.209Z,0.51
2023-05-09T04:03:34.155Z,0.51
2023-05-09T04:04:34.138Z,0.51
2023-05-09T04:05:34.150Z,0.51
2023-05-09T04:06:34.171Z,0.52
2023-05-09T04:07:34.182Z,0.51
2023-05-09T04:08:34.253Z,0.50
2023-05-09T04:09:34.306Z,0.52
2023-05-09T04:10:34.503Z,0.50
2023-05-09T04:11:34.425Z,0.50
2023-05-09T04:12:34.453Z,0.51
2023-05-09T04:13:34.489Z,0.51
2023-05-09T04:14:34.534Z,0.50
2023-05-09T04:15:34.558Z,0.50
2023-05-09T04:16:34.624Z,0.51
2023-05-09T04:17:34.656Z,0.50
2023-05-09T04:18:34.688Z,0.51
2023-05-09T04:19:34.680Z,0.51
2023-05-09T04:20:34.712Z,0.51
2023-05-09T04:21:34.746Z,0.50
2023-05-09T04:22:34.825Z,0.51
2023-05-09T04:23:34.833Z,0.52
2023-05-09T04:24:34.870Z,0.51
2023-05-09T04:25:34.903Z,0.51
2023-05-09T04:26:35.134Z,0.50
2023-05-09T04:27:35.033Z,0.51
2023-05-09T04:28:35.070Z,0.51
2023-05-09T04:29:35.099Z,0.52
2023-05-09T04:30:35.184Z,0.50
2023-05-09T04:31:35.295Z,0.51
2023-05-09T04:32:35.385Z,0.51
2023-05-09T04:33:35.338Z,0.51
2023-05-09T04:34:35.422Z,0.51
2023-05-09T04:35:35.485Z,0.51
2023-05-09T04:36:35.548Z,0.51
2023-05-09T04:37:36.464Z,0.51
2023-05-09T04:38:35.647Z,0.51
2023-05-09T04:39:35.704Z,0.51
2023-05-09T04:40:35.807Z,0.50
2023-05-09T04:41:35.857Z,0.51
2023-05-09T04:42:36.084Z,0.51
2023-05-09T04:43:35.966Z,0.51
2023-05-09T04:44:36.030Z,0.51
2023-05-09T04:45:36.099Z,0.51
2023-05-09T04:46:36.207Z,0.52
2023-05-09T04:47:36.356Z,0.51
2023-05-09T04:48:36.305Z,0.52
2023-05-09T04:49:36.406Z,0.51
2023-05-09T04:50:36.454Z,0.50
2023-05-09T04:51:36.536Z,0.52
2023-05-09T04:52:36.555Z,0.52
2023-05-09T04:53:36.594Z,0.50
2023-05-09T04:54:36.613Z,0.51
2023-05-09T04:55:36.687Z,0.51
2023-05-09T04:56:36.707Z,0.50
2023-05-09T04:57:36.752Z,0.51
2023-05-09T04:58:36.937Z,0.51
2023-05-09T04:59:36.850Z,0.51
2023-05-09T05:00:36.887Z,0.51
2023-05-09T05:01:37.005Z,0.51
2023-05-09T05:02:37.036Z,0.51
2023-05-09T05:03:37.118Z,0.52
2023-05-09T05:04:37.180Z,0.51
2023-05-09T05:05:37.890Z,0.51
2023-05-09T05:06:37.291Z,0.51
2023-05-09T05:07:37.320Z,0.51
2023-05-09T05:08:37.379Z,0.51
2023-05-09T05:09:37.415Z,0.51
2023-05-09T05:10:37.506Z,0.51
2023-05-09T05:11:37.708Z,0.51
2023-05-09T05:12:37.832Z,0.51
2023-05-09T05:13:37.740Z,0.51
2023-05-09T05:14:37.975Z,0.51
2023-05-09T05:15:37.917Z,0.51
2023-05-09T05:16:38.170Z,0.52
2023-05-09T05:17:38.140Z,0.51
2023-05-09T05:18:38.250Z,0.51
2023-05-09T05:19:38.274Z,0.51
2023-05-09T05:20:38.381Z,0.50
2023-05-09T05:21:38.453Z,0.51
2023-05-09T05:22:38.925Z,0.52
2023-05-09T05:23:38.683Z,0.52
2023-05-09T05:24:38.717Z,0.56
2023-05-09T05:25:39.071Z,0.60
2023-05-09T05:26:38.882Z,0.61
2023-05-09T05:27:39.182Z,0.58
2023-05-09T05:28:39.016Z,0.58
2023-05-09T05:29:39.082Z,0.57
2023-05-09T05:30:39.271Z,0.57
2023-05-09T05:31:42.438Z,0.57
2023-05-09T05:32:39.255Z,0.57
2023-05-09T05:33:39.659Z,0.57
2023-05-09T05:34:39.269Z,0.57
2023-05-09T05:35:39.275Z,0.57
2023-05-09T05:36:39.290Z,0.57
2023-05-09T05:37:39.300Z,0.57
2023-05-09T05:38:39.665Z,0.57
2023-05-09T05:39:39.329Z,0.58
2023-05-09T05:40:39.338Z,0.57
2023-05-09T05:41:39.363Z,0.57
2023-05-09T05:42:39.389Z,0.57
2023-05-09T05:43:39.700Z,0.58
2023-05-09T05:44:39.405Z,0.58
2023-05-09T05:45:39.467Z,0.58
2023-05-09T05:46:39.610Z,0.60
2023-05-09T05:47:39.770Z,0.66
2023-05-09T05:48:39.679Z,0.64
2023-05-09T05:49:39.737Z,0.63
2023-05-09T05:50:39.831Z,0.63
2023-05-09T05:51:39.912Z,0.63
2023-05-09T12:41:49.879Z,0.50
2023-05-09T12:42:41.354Z,0.50
2023-05-09T12:43:41.345Z,0.50
2023-05-09T12:44:41.339Z,0.50
2023-05-09T12:45:41.322Z,0.50
2023-05-09T12:46:41.361Z,0.50
2023-05-09T12:47:41.356Z,0.50
2023-05-09T12:48:41.300Z,0.50
2023-05-09T12:49:41.294Z,0.50
2023-05-09T12:50:41.539Z,0.50
2023-05-09T12:51:41.304Z,0.50
2023-05-09T12:52:54.159Z,0.50
2023-05-09T12:53:41.307Z,0.50
2023-05-09T12:54:41.493Z,0.49
2023-05-09T12:55:41.579Z,0.48
2023-05-09T12:56:41.262Z,0.45
2023-05-09T12:57:41.391Z,0.44
2023-05-09T12:58:41.279Z,0.50
2023-05-09T12:59:41.254Z,0.50
2023-05-09T13:00:41.300Z,0.50
2023-05-09T13:01:41.265Z,0.50
2023-05-09T13:02:42.417Z,0.50
2023-05-09T13:03:41.265Z,0.50
2023-05-09T13:04:41.557Z,0.50
2023-05-09T13:05:41.550Z,0.50
2023-05-09T13:06:41.337Z,0.51
2023-05-09T13:07:41.314Z,0.51
2023-05-09T13:08:41.310Z,0.50
2023-05-09T13:09:41.313Z,0.50
2023-05-09T13:10:41.326Z,0.51
2023-05-09T13:11:42.556Z,0.50
2023-05-09T13:12:48.861Z,0.50
2023-05-09T13:13:41.318Z,0.50
2023-05-09T13:14:41.427Z,0.51
2023-05-09T13:15:41.549Z,0.51
2023-05-09T13:16:41.346Z,0.50
2023-05-09T13:17:41.359Z,0.50
2023-05-09T13:18:41.316Z,0.52
2023-05-09T13:19:41.310Z,0.51
2023-05-09T13:20:41.314Z,0.51
2023-05-09T13:21:41.572Z,0.50
2023-05-09T13:22:41.312Z,0.51
2023-05-09T13:23:41.315Z,0.51
2023-05-09T13:24:41.330Z,0.50
2023-05-09T13:25:41.325Z,0.50
2023-05-09T13:26:41.321Z,0.51
2023-05-09T13:27:41.335Z,0.51
2023-05-09T13:28:41.464Z,0.51
2023-05-09T13:29:41.332Z,0.50
2023-05-09T13:30:41.343Z,0.50
2023-05-09T13:31:41.322Z,0.51
2023-05-09T13:32:41.615Z,0.51
2023-05-09T13:33:41.331Z,0.51
2023-05-09T13:34:41.261Z,0.52
2023-05-09T13:35:41.235Z,0.51
2023-05-09T13:36:41.228Z,0.50
2023-05-09T13:37:41.209Z,0.51
2023-05-09T13:38:41.220Z,0.51
2023-05-09T13:39:41.193Z,0.52
2023-05-09T13:40:41.558Z,0.52
2023-05-09T13:41:41.567Z,0.51
2023-05-09T13:42:41.181Z,0.51
2023-05-09T13:43:41.182Z,0.51
2023-05-09T13:44:41.299Z,0.53
2023-05-09T13:45:41.617Z,0.51
2023-05-09T13:46:41.336Z,0.52
2023-05-09T13:47:41.194Z,0.52
2023-05-09T13:48:41.149Z,0.52
2023-05-09T13:49:41.164Z,0.52
2023-05-09T13:50:41.154Z,0.52
2023-05-09T13:51:41.169Z,0.52
2023-05-09T13:52:41.150Z,0.52
2023-05-09T13:53:41.139Z,0.51
2023-05-09T13:54:41.167Z,0.52
2023-05-09T13:55:41.129Z,0.52
2023-05-09T13:56:41.140Z,0.53
2023-05-09T13:57:41.120Z,0.52
2023-05-09T13:58:41.116Z,0.53
2023-05-09T13:59:41.112Z,0.52
2023-05-09T14:00:41.220Z,0.52
2023-05-09T14:01:41.126Z,0.53
2023-05-09T14:02:41.131Z,0.53
2023-05-09T14:03:41.108Z,0.53
2023-05-09T14:04:41.063Z,0.53
2023-05-09T14:05:41.062Z,0.54
2023-05-09T14:06:41.054Z,0.52
2023-05-09T14:07:41.050Z,0.53
2023-05-09T14:08:41.038Z,0.54
2023-05-09T14:09:41.027Z,0.53
2023-05-09T14:10:41.027Z,0.53
2023-05-09T14:11:41.073Z,0.54
2023-05-09T14:12:41.053Z,0.54
2023-05-09T14:13:41.533Z,0.55
2023-05-09T14:14:40.999Z,0.54
2023-05-09T14:15:41.099Z,0.55
2023-05-09T14:16:41.101Z,0.55
2023-05-09T14:17:41.020Z,0.55
2023-05-09T14:18:40.970Z,0.55
2023-05-09T14:19:40.983Z,0.56
2023-05-09T14:20:40.966Z,0.56
2023-05-09T14:21:40.949Z,0.55
2023-05-09T14:22:40.963Z,0.55
2023-05-09T14:23:40.936Z,0.56
2023-05-09T14:24:40.941Z,0.55
2023-05-09T14:25:40.992Z,0.55
2023-05-09T14:26:40.931Z,0.55
2023-05-09T14:27:41.833Z,0.56
2023-05-09T14:28:40.934Z,0.57
2023-05-09T14:29:41.415Z,0.56
2023-05-09T14:30:40.928Z,0.56
2023-05-09T14:31:40.987Z,0.56
2023-05-09T14:32:41.111Z,0.57
2023-05-09T14:33:40.924Z,0.56
2023-05-09T14:34:40.929Z,0.57
2023-05-09T14:35:41.740Z,0.57
2023-05-09T14:36:41.058Z,0.55
2023-05-09T14:37:40.897Z,0.56
2023-05-09T14:38:40.905Z,0.56
2023-05-09T14:39:40.894Z,0.56
2023-05-09T14:40:40.901Z,0.57
2023-05-09T14:41:40.887Z,0.57
2023-05-09T14:42:40.887Z,0.57
2023-05-09T14:43:40.866Z,0.58
2023-05-09T14:44:40.880Z,0.57
2023-05-09T14:45:40.843Z,0.58
2023-05-09T14:46:40.923Z,0.57
2023-05-09T14:47:40.896Z,0.57
2023-05-09T14:48:40.850Z,0.58
2023-05-09T14:49:40.826Z,0.58
2023-05-09T14:50:40.839Z,0.58
2023-05-09T14:51:40.845Z,0.58
2023-05-09T14:52:40.808Z,0.57
2023-05-09T14:53:40.816Z,0.59
2023-05-09T14:54:40.799Z,0.58
2023-05-09T14:55:40.816Z,0.58
2023-05-09T14:56:40.819Z,0.60
2023-05-09T14:57:40.820Z,0.58
2023-05-09T14:58:40.835Z,0.58
2023-05-09T14:59:41.582Z,0.59
2023-05-09T15:00:40.856Z,0.59
2023-05-09T15:01:40.910Z,0.59
2023-05-09T15:02:40.870Z,0.60
2023-05-09T15:03:40.854Z,0.58
2023-05-09T15:04:40.963Z,0.59
2023-05-09T15:05:41.094Z,0.61
2023-05-09T15:06:40.855Z,0.59
2023-05-09T15:07:40.871Z,0.59
2023-05-09T15:08:40.879Z,0.60
2023-05-09T15:09:41.121Z,0.59
2023-05-09T15:10:40.930Z,0.59
2023-05-09T15:11:47.843Z,0.60
2023-05-09T15:12:40.909Z,0.60
2023-05-09T15:13:40.907Z,0.60
2023-05-09T15:14:40.888Z,0.60
2023-05-09T15:15:40.918Z,0.61
2023-05-09T15:16:41.064Z,0.63
2023-05-09T15:17:40.875Z,0.60
2023-05-09T15:18:40.865Z,0.60
2023-05-09T15:19:40.868Z,0.61
2023-05-09T15:20:41.002Z,0.62
2023-05-09T15:21:40.863Z,0.60
2023-05-09T15:22:40.867Z,0.60
2023-05-09T15:23:40.852Z,0.60
2023-05-09T15:24:40.842Z,0.61
2023-05-09T15:25:40.876Z,0.61
2023-05-09T15:26:40.832Z,0.61
2023-05-09T15:27:41.658Z,0.61
2023-05-09T15:28:40.835Z,0.60
2023-05-09T15:29:40.833Z,0.62
2023-05-09T15:30:40.867Z,0.61
2023-05-09T15:31:40.841Z,0.60
2023-05-09T15:32:41.002Z,0.61
2023-05-09T15:33:40.830Z,0.62
2023-05-09T15:34:40.827Z,0.62
2023-05-09T15:35:40.881Z,0.61
2023-05-09T15:36:40.962Z,0.61
2023-05-09T15:37:40.799Z,0.63
2023-05-09T15:38:40.793Z,0.62
2023-05-09T15:39:40.788Z,0.61
2023-05-09T15:40:40.866Z,0.62
2023-05-09T15:41:40.897Z,0.61
2023-05-09T15:42:40.774Z,0.63
2023-05-09T15:43:40.782Z,0.62
2023-05-09T15:44:40.762Z,0.62
2023-05-09T15:45:40.811Z,0.62
2023-05-09T15:46:41.012Z,0.64
2023-05-09T15:47:40.830Z,0.63
2023-05-09T15:48:40.748Z,0.63
2023-05-09T15:49:40.742Z,0.62
2023-05-09T15:50:40.745Z,0.63
2023-05-09T15:51:40.761Z,0.63
2023-05-09T15:52:40.873Z,0.64
2023-05-09T15:53:40.762Z,0.62
2023-05-09T15:54:40.730Z,0.63
2023-05-09T15:55:40.710Z,0.63
2023-05-09T15:56:40.707Z,0.64
2023-05-09T15:57:40.691Z,0.65
2023-05-09T15:58:40.692Z,0.64
2023-05-09T15:59:40.702Z,0.65
2023-05-09T16:00:40.678Z,0.65
2023-05-09T16:01:40.704Z,0.65
2023-05-09T16:02:40.716Z,0.65
2023-05-09T16:03:40.822Z,0.64
2023-05-09T16:04:40.669Z,0.65
2023-05-09T16:05:40.684Z,0.65
2023-05-09T16:06:40.690Z,0.65
2023-05-09T16:07:40.672Z,0.64
2023-05-09T16:08:40.790Z,0.65
2023-05-09T16:09:40.703Z,0.66
2023-05-09T16:10:40.716Z,0.64
2023-05-09T16:11:40.743Z,0.65
2023-05-09T16:12:40.799Z,0.66
2023-05-09T16:13:40.771Z,0.65
2023-05-09T16:14:40.790Z,0.65
2023-05-09T16:15:40.870Z,0.65
2023-05-09T16:16:40.892Z,0.66
2023-05-09T16:17:40.821Z,0.66
2023-05-09T16:18:40.845Z,0.65
2023-05-09T16:19:40.870Z,0.66
2023-05-09T16:20:40.908Z,0.65
2023-05-09T16:21:40.999Z,0.66
2023-05-09T16:22:41.007Z,0.65
2023-05-09T16:23:41.052Z,0.66
2023-05-09T16:24:41.176Z,0.65
2023-05-09T16:25:41.141Z,0.66
2023-05-09T16:26:42.022Z,0.67
2023-05-09T16:27:41.215Z,0.66
2023-05-09T16:28:41.279Z,0.66
2023-05-09T16:29:41.322Z,0.67
2023-05-09T16:30:41.374Z,0.66
2023-05-09T16:31:41.454Z,0.67
2023-05-09T16:32:41.463Z,0.67
2023-05-09T16:33:41.498Z,0.67
2023-05-09T16:34:41.557Z,0.65
2023-05-09T16:35:41.602Z,0.68
2023-05-09T16:36:41.613Z,0.66
2023-05-09T16:37:41.626Z,0.67
2023-05-09T16:38:41.665Z,0.67
2023-05-09T16:39:41.697Z,0.67
2023-05-09T16:40:41.872Z,0.68
2023-05-09T16:41:41.811Z,0.68
2023-05-09T16:42:42.985Z,0.68
2023-05-09T16:43:42.669Z,0.68
2023-05-09T16:44:41.919Z,0.67
2023-05-09T16:45:41.937Z,0.66
2023-05-09T16:46:41.990Z,0.67
2023-05-09T16:47:42.052Z,0.67
2023-05-09T16:48:42.035Z,0.66
2023-05-09T16:49:42.091Z,0.68
2023-05-09T16:50:42.139Z,0.67
2023-05-09T16:51:42.155Z,0.67
2023-05-09T16:52:42.184Z,0.66
2023-05-09T16:53:43.132Z,0.66
2023-05-09T16:54:42.303Z,0.67
2023-05-09T16:55:42.322Z,0.68
2023-05-09T16:56:42.470Z,0.67
2023-05-09T16:57:42.364Z,0.68
2023-05-09T16:58:42.399Z,0.67
2023-05-09T16:59:42.415Z,0.67
2023-05-09T17:00:42.434Z,0.66
2023-05-09T17:01:42.838Z,0.66
2023-05-09T17:02:42.524Z,0.67
2023-05-09T17:03:42.498Z,0.66
2023-05-09T17:04:42.554Z,0.67
2023-05-09T17:05:42.540Z,0.66
2023-05-09T17:06:42.572Z,0.67
2023-05-09T17:07:42.572Z,0.65
2023-05-09T17:08:42.605Z,0.65
2023-05-09T17:09:42.840Z,0.67
2023-05-09T17:10:42.690Z,0.67
2023-05-09T17:11:42.703Z,0.66
2023-05-09T17:12:42.879Z,0.67
2023-05-09T17:13:42.715Z,0.67
2023-05-09T17:14:42.727Z,0.67
2023-05-09T17:15:42.725Z,0.67
2023-05-09T17:16:42.733Z,0.66
2023-05-09T17:17:42.785Z,0.68
2023-05-09T17:18:42.749Z,0.68
2023-05-09T17:19:42.791Z,0.68
2023-05-09T17:20:42.785Z,0.66
2023-05-09T17:21:42.807Z,0.67
2023-05-09T17:22:42.853Z,0.66
2023-05-09T17:23:42.850Z,0.67
2023-05-09T17:24:42.892Z,0.67
2023-05-09T17:25:42.920Z,0.68
2023-05-09T17:26:42.935Z,0.69
2023-05-09T17:27:42.908Z,0.67
2023-05-09T17:28:43.212Z,0.68
2023-05-09T17:29:42.926Z,0.67
2023-05-09T17:30:42.977Z,0.68
2023-05-09T17:31:43.033Z,0.67
2023-05-09T17:32:43.061Z,0.69
2023-05-09T17:33:42.977Z,0.68
2023-05-09T17:34:42.994Z,0.67
2023-05-09T17:35:42.974Z,0.68
2023-05-09T17:36:42.975Z,0.67
2023-05-09T17:37:42.985Z,0.68
2023-05-09T17:38:42.977Z,0.67
2023-05-09T17:39:42.984Z,0.68
2023-05-09T17:40:43.002Z,0.67
2023-05-09T17:41:43.013Z,0.66
2023-05-09T17:42:43.039Z,0.66
2023-05-09T17:43:42.997Z,0.67
2023-05-09T17:44:44.550Z,0.66
2023-05-09T17:45:43.218Z,0.68
2023-05-09T17:46:43.280Z,0.69
2023-05-09T17:47:43.290Z,0.67
2023-05-09T17:48:43.224Z,0.67
2023-05-09T17:49:43.211Z,0.68
2023-05-09T17:50:43.222Z,0.67
2023-05-09T17:51:43.254Z,0.67
2023-05-09T17:52:43.238Z,0.69
2023-05-09T17:53:43.252Z,0.69
2023-05-09T17:54:43.268Z,0.69
2023-05-09T17:55:43.271Z,0.68
2023-05-09T17:56:43.290Z,0.68
2023-05-09T17:57:43.294Z,0.67
2023-05-09T17:58:43.307Z,0.67
2023-05-09T17:59:43.314Z,0.69
2023-05-09T18:00:43.457Z,0.68
2023-05-09T18:01:43.448Z,0.68
2023-05-09T18:02:43.384Z,0.70
2023-05-09T18:03:43.467Z,0.67
2023-05-09T18:04:43.392Z,0.69
2023-05-09T18:05:43.405Z,0.68
2023-05-09T18:06:43.425Z,0.68
2023-05-09T18:07:43.419Z,0.69
2023-05-09T18:08:43.426Z,0.69
2023-05-09T18:09:43.437Z,0.69
2023-05-09T18:10:43.456Z,0.68
2023-05-09T18:11:43.465Z,0.68
2023-05-09T18:12:43.490Z,0.68
2023-05-09T18:13:43.478Z,0.68
2023-05-09T18:14:43.481Z,0.69
2023-05-09T18:15:43.522Z,0.68
2023-05-09T18:16:43.641Z,0.69
2023-05-09T18:17:43.524Z,0.69
2023-05-09T18:18:43.553Z,0.68
2023-05-09T18:19:43.549Z,0.67
2023-05-09T18:20:43.541Z,0.69
2023-05-09T18:21:43.557Z,0.69
2023-05-09T18:22:43.575Z,0.69
2023-05-09T18:23:43.589Z,0.68
2023-05-09T18:24:43.592Z,0.68
2023-05-09T18:25:43.601Z,0.67
2023-05-09T18:26:43.636Z,0.69
2023-05-09T18:27:43.630Z,0.67
2023-05-09T18:28:43.632Z,0.69
2023-05-09T18:29:43.645Z,0.68
2023-05-09T18:30:43.655Z,0.68
2023-05-09T18:31:43.778Z,0.69
2023-05-09T18:32:43.897Z,0.67
2023-05-09T18:33:43.703Z,0.68
2023-05-09T18:34:43.728Z,0.68
2023-05-09T18:35:43.748Z,0.67
2023-05-09T18:36:43.761Z,0.68
2023-05-09T18:37:43.780Z,0.69
2023-05-09T18:38:44.671Z,0.68
2023-05-09T18:39:43.819Z,0.68
2023-05-09T18:40:43.838Z,0.67
2023-05-09T18:41:43.865Z,0.68
2023-05-09T18:42:43.875Z,0.68
2023-05-09T18:43:43.910Z,0.67
2023-05-09T18:44:43.982Z,0.67
2023-05-09T18:45:43.956Z,0.66
2023-05-09T18:46:44.076Z,0.67
2023-05-09T18:47:44.009Z,0.66
2023-05-09T18:48:44.137Z,0.67
2023-05-09T18:49:44.025Z,0.67
2023-05-09T18:50:44.054Z,0.66
2023-05-09T18:51:44.058Z,0.67
2023-05-09T18:52:44.074Z,0.67
2023-05-09T18:53:44.094Z,0.66
2023-05-09T18:54:44.114Z,0.66
2023-05-09T18:55:44.130Z,0.66
2023-05-09T18:56:44.159Z,0.66
2023-05-09T18:57:44.177Z,0.65
2023-05-09T18:58:44.181Z,0.66
2023-05-09T18:59:44.194Z,0.66
2023-05-09T19:00:44.262Z,0.66
2023-05-09T19:01:44.246Z,0.65
2023-05-09T19:02:44.498Z,0.67
2023-05-09T19:03:44.326Z,0.65
2023-05-09T19:04:44.453Z,0.66
2023-05-09T19:05:44.339Z,0.65
2023-05-09T19:06:44.356Z,0.66
2023-05-09T19:07:44.391Z,0.64
2023-05-09T19:08:44.402Z,0.65
2023-05-09T19:09:44.444Z,0.65
2023-05-09T19:10:44.426Z,0.64
2023-05-09T19:11:44.607Z,0.64
2023-05-09T19:12:45.392Z,0.64
2023-05-09T19:13:44.579Z,0.65
2023-05-09T19:14:44.527Z,0.63
2023-05-09T19:15:44.543Z,0.62
2023-05-09T19:16:44.582Z,0.63
2023-05-09T19:17:44.573Z,0.63
2023-05-09T19:18:44.580Z,0.65
2023-05-09T19:19:44.583Z,0.64
2023-05-09T19:20:45.051Z,0.63
2023-05-09T19:21:44.603Z,0.62
2023-05-09T19:22:44.611Z,0.61
2023-05-09T19:23:44.625Z,0.62
2023-05-09T19:24:44.643Z,0.64
2023-05-09T19:25:44.661Z,0.64
2023-05-09T19:26:44.682Z,0.64
2023-05-09T19:27:44.691Z,0.63
2023-05-09T19:28:44.710Z,0.63
2023-05-09T19:29:44.726Z,0.64
2023-05-09T19:30:44.757Z,0.63
2023-05-09T19:31:45.495Z,0.63
2023-05-09T19:32:44.794Z,0.63
2023-05-09T19:33:44.767Z,0.63
2023-05-09T19:34:44.787Z,0.63
2023-05-09T19:35:44.795Z,0.63
2023-05-09T19:36:44.822Z,0.64
2023-05-09T19:37:44.832Z,0.63
2023-05-09T19:38:44.831Z,0.63
2023-05-09T19:39:44.849Z,0.61
2023-05-09T19:40:44.856Z,0.63
2023-05-09T19:41:44.883Z,0.63
2023-05-09T19:42:44.881Z,0.64
2023-05-09T19:43:44.882Z,0.64
2023-05-09T19:44:44.908Z,0.64
2023-05-09T19:45:44.932Z,0.64
2023-05-09T19:46:45.029Z,0.64
2023-05-09T19:47:44.982Z,0.64
2023-05-09T19:48:44.952Z,0.63
2023-05-09T19:49:44.995Z,0.63
2023-05-09T19:50:45.008Z,0.65
2023-05-09T19:51:45.008Z,0.64
2023-05-09T19:52:45.076Z,0.65
2023-05-09T19:53:45.039Z,0.62
2023-05-09T19:54:45.043Z,0.63
2023-05-09T19:55:45.062Z,0.63
2023-05-09T19:56:45.067Z,0.62
2023-05-09T19:57:45.106Z,0.63
2023-05-09T19:58:45.128Z,0.63
2023-05-09T19:59:45.104Z,0.63
2023-05-09T20:00:45.142Z,0.64
2023-05-09T20:01:45.728Z,0.64
2023-05-09T20:02:45.657Z,0.63
2023-05-09T20:03:45.623Z,0.63
2023-05-09T20:04:45.567Z,0.63
2023-05-09T20:05:45.590Z,0.63
2023-05-09T20:06:45.596Z,0.63
2023-05-09T20:07:45.583Z,0.62